createdAt,value
2022-11-01T00:04:13.617Z,99.9
2022-11-01T00:09:19.989Z,99.9
2022-11-01T00:14:46.526Z,99.9
2022-11-01T00:19:23.467Z,99.9
2022-11-01T00:24:29.930Z,99.9
2022-11-01T00:29:46.320Z,99.9
2022-11-01T00:34:52.688Z,99.9
2022-11-01T00:40:03.139Z,99.9
2022-11-01T00:45:05.504Z,99.9
2022-11-01T00:50:35.937Z,99.9
2022-11-01T00:55:18.297Z,99.9
2022-11-01T01:00:14.790Z,99.9
2022-11-01T01:05:45.285Z,99.9
2022-11-01T01:10:37.684Z,99.9
2022-11-01T01:15:44.045Z,99.9
2022-11-01T01:21:14.495Z,99.9
2022-11-01T01:25:56.849Z,99.9
2022-11-01T01:31:03.204Z,99.9
2022-11-01T01:36:09.686Z,99.9
2022-11-01T01:41:06.108Z,99.9
2022-11-01T01:46:22.768Z,99.9
2022-11-01T01:51:29.179Z,99.9
2022-11-01T01:56:39.604Z,99.9
2022-11-01T02:01:42.126Z,99.9
2022-11-01T02:06:52.297Z,99.9
2022-11-01T02:11:58.772Z,99.9
2022-11-01T02:17:00.276Z,99.9
2022-11-01T02:22:27.803Z,99.9
2022-11-01T02:27:14.264Z,99.9
2022-11-01T02:32:10.617Z,99.9
2022-11-01T02:42:33.415Z,99.9
2022-11-01T02:47:29.745Z,99.9
2022-11-01T02:52:36.135Z,99.9
2022-11-01T02:57:52.705Z,99.9
2022-11-01T03:02:49.125Z,99.9
2022-11-01T03:08:09.541Z,99.9
2022-11-01T03:18:18.341Z,99.9
2022-11-01T03:23:24.712Z,99.9
2022-11-01T03:43:51.398Z,99.9
2022-11-01T03:48:58.045Z,99.9
2022-11-01T03:54:03.465Z,99.9
2022-11-01T03:59:10.882Z,99.9
2022-11-01T04:04:17.261Z,99.9
2022-11-01T04:09:47.679Z,99.9
2022-11-01T04:14:30.048Z,99.9
2022-11-01T04:24:42.894Z,99.9
2022-11-01T04:29:49.340Z,99.9
2022-11-01T04:34:55.822Z,99.9
2022-11-01T04:40:01.125Z,99.9
2022-11-01T04:45:08.505Z,99.9
2022-11-01T04:50:14.905Z,99.9
2022-11-01T04:55:21.264Z,99.9
2022-11-01T05:00:27.762Z,99.9
2022-11-01T05:05:34.274Z,99.9
2022-11-01T05:10:40.721Z,99.9
2022-11-01T05:16:19.471Z,99.9
2022-11-01T05:20:52.567Z,99.9
2022-11-01T05:25:59.955Z,99.9
2022-11-01T05:31:06.329Z,99.9
2022-11-01T05:36:12.767Z,99.9
2022-11-01T05:41:19.133Z,99.9
2022-11-01T05:47:02.586Z,99.9
2022-11-01T05:52:09.999Z,99.9
2022-11-01T05:57:40.496Z,99.9
2022-11-01T06:02:12.844Z,99.9
2022-11-01T06:07:29.214Z,99.9
2022-11-01T06:12:35.571Z,99.9
2022-11-01T06:17:41.940Z,99.9
2022-11-01T06:22:48.354Z,99.9
2022-11-01T06:27:54.695Z,99.9
2022-11-01T06:32:51.240Z,99.9
2022-11-01T06:38:31.738Z,99.9
2022-11-01T06:43:14.034Z,99.9
2022-11-01T06:48:20.444Z,99.9
2022-11-01T06:58:37.229Z,99.9
2022-11-01T07:08:45.994Z,99.9
2022-11-01T07:14:16.428Z,99.9
2022-11-01T07:23:55.092Z,99.9
2022-11-01T07:29:12.059Z,99.9
2022-11-01T07:34:18.486Z,99.9
2022-11-01T07:39:14.843Z,99.9
2022-11-01T07:44:31.883Z,99.9
2022-11-01T07:49:28.272Z,99.9
2022-11-01T07:54:34.750Z,99.9
2022-11-01T07:59:52.709Z,99.9
2022-11-01T08:04:59.113Z,99.9
2022-11-01T08:10:29.507Z,99.9
2022-11-01T08:15:11.844Z,99.9
2022-11-01T08:20:08.229Z,99.9
2022-11-01T08:25:24.610Z,99.9
2022-11-01T08:31:15.073Z,99.4
2022-11-01T08:40:33.863Z,98.7
2022-11-01T08:50:46.626Z,98.4
2022-11-01T08:56:03.127Z,98.6
2022-11-01T09:06:15.956Z,98.2
2022-11-01T09:16:18.843Z,98.5
2022-11-01T09:24:08.560Z,98.3
2022-11-01T09:33:03.519Z,98.3
2022-11-01T09:34:02.028Z,98.4
2022-11-01T09:39:08.473Z,98.5
2022-11-01T09:45:06.998Z,98.3
2022-11-01T09:49:21.295Z,98.6
2022-11-01T09:59:27.410Z,98.6
2022-11-01T09:59:33.444Z,98.9
2022-11-01T10:04:40.913Z,98.9
2022-11-01T10:10:07.336Z,99.5
2022-11-01T10:15:37.755Z,99.5
2022-11-01T10:21:12.801Z,99.4
2022-11-01T10:30:13.497Z,98.3
2022-11-01T10:35:19.889Z,97.5
2022-11-01T10:53:10.137Z,95.3
2022-11-01T10:57:57.458Z,94.5
2022-11-01T11:03:03.867Z,93.2
2022-11-01T11:09:34.396Z,92.5
2022-11-01T11:13:16.769Z,92.3
2022-11-01T11:28:36.645Z,89.4
2022-11-01T11:33:44.113Z,88.3
2022-11-01T11:38:50.638Z,86.6
2022-11-01T11:43:57.083Z,85.0
2022-11-01T11:49:04.021Z,83.1
2022-11-01T11:54:10.511Z,82.2
2022-11-01T12:00:08.106Z,82.8
2022-11-01T12:04:46.473Z,82.2
2022-11-01T12:09:32.865Z,80.2
2022-11-01T13:21:34.134Z,81.2
2022-11-01T13:35:21.545Z,83.6
2022-11-01T13:38:16.232Z,83.6
2022-11-01T13:43:08.581Z,84.2
2022-11-01T13:48:24.992Z,84.7
2022-11-01T13:54:15.485Z,85.3
2022-11-01T13:58:37.913Z,85.6
2022-11-01T14:04:04.330Z,84.8
2022-11-01T14:13:57.230Z,85.3
2022-11-01T14:19:03.659Z,85.5
2022-11-01T14:24:10.037Z,85.6
2022-11-01T14:29:36.507Z,85.2
2022-11-01T14:34:22.879Z,85.2
2022-11-01T14:39:29.278Z,85.2
2022-11-01T14:44:35.657Z,84.9
2022-11-01T14:49:32.043Z,85.2
2022-11-01T14:54:48.416Z,84.9
2022-11-01T14:59:54.793Z,85.4
2022-11-01T15:05:01.225Z,85.8
2022-11-01T15:10:07.825Z,86.0
2022-11-01T15:20:44.497Z,86.6
2022-11-01T15:25:26.801Z,86.7
2022-11-01T15:30:33.201Z,87.0
2022-11-01T15:35:39.556Z,87.2
2022-11-01T15:40:35.971Z,87.3
2022-11-01T15:46:37.581Z,87.6
2022-11-01T16:01:12.783Z,88.5
2022-11-01T16:11:25.515Z,88.4
2022-11-01T16:16:51.937Z,88.6
2022-11-01T16:21:38.293Z,88.9
2022-11-01T16:26:44.789Z,89.4
2022-11-01T16:38:09.652Z,89.7
2022-11-01T16:42:03.909Z,90.0
2022-11-01T16:47:10.262Z,90.1
2022-11-01T16:52:06.621Z,90.3
2022-11-01T16:57:23.074Z,90.3
2022-11-01T17:02:29.586Z,90.4
2022-11-01T17:07:35.798Z,90.5
2022-11-01T17:12:56.212Z,90.6
2022-11-01T17:17:48.533Z,90.7
2022-11-01T17:22:54.924Z,90.8
2022-11-01T17:28:01.689Z,90.8
2022-11-01T17:33:27.783Z,90.9
2022-11-01T17:38:38.360Z,91.0
2022-11-01T17:43:54.804Z,91.1
2022-11-01T17:49:02.153Z,91.1
2022-11-01T17:54:22.682Z,91.2
2022-11-01T17:59:04.938Z,91.3
2022-11-01T18:04:11.298Z,91.3
2022-11-01T18:09:17.730Z,91.4
2022-11-01T18:14:34.259Z,91.4
2022-11-01T18:19:30.626Z,91.6
2022-11-01T18:24:36.996Z,91.6
2022-11-01T18:29:43.398Z,91.6
2022-11-01T18:35:31.629Z,91.8
2022-11-01T18:40:40.256Z,91.9
2022-11-01T18:46:11.517Z,91.9
2022-11-01T18:50:54.149Z,92.0
2022-11-01T18:56:25.655Z,92.1
2022-11-01T19:06:03.331Z,92.1
2022-11-01T19:11:19.790Z,92.2
2022-11-01T19:16:26.254Z,92.2
2022-11-01T19:21:32.584Z,92.3
2022-11-01T19:26:42.957Z,92.3
2022-11-01T19:31:45.349Z,92.4
2022-11-01T19:36:51.707Z,92.4
2022-11-01T19:42:52.248Z,92.4
2022-11-01T19:47:39.726Z,92.6
2022-11-01T19:52:47.560Z,92.6
2022-11-01T19:58:12.500Z,92.6
2022-11-01T20:02:49.062Z,92.7
2022-11-01T20:07:55.305Z,92.8
2022-11-01T20:13:15.370Z,92.9
2022-11-01T20:18:21.816Z,93.1
2022-11-01T20:23:27.017Z,93.2
2022-11-01T20:28:38.128Z,93.1
2022-11-01T20:33:31.520Z,93.3
2022-11-01T20:38:47.932Z,93.3
2022-11-01T20:43:45.334Z,93.3
2022-11-01T20:48:50.847Z,93.4
2022-11-01T20:54:17.473Z,93.5
2022-11-01T20:59:50.233Z,93.5
2022-11-01T21:04:48.215Z,93.4
2022-11-01T21:10:03.589Z,93.5
2022-11-01T21:15:00.957Z,93.6
2022-11-01T21:20:17.402Z,93.7
2022-11-01T21:25:13.872Z,93.7
2022-11-01T21:30:50.411Z,93.8
2022-11-01T21:40:43.265Z,94.0
2022-11-01T21:50:56.084Z,94.1
2022-11-01T21:55:52.539Z,94.1
2022-11-01T22:01:28.310Z,94.1
2022-11-01T22:06:15.720Z,94.2
2022-11-01T22:11:32.364Z,94.3
2022-11-01T22:16:19.972Z,94.5
2022-11-01T22:21:36.483Z,94.6
2022-11-01T22:26:42.880Z,94.7
2022-11-01T22:36:55.889Z,95.2
2022-11-01T22:42:05.832Z,95.2
2022-11-01T22:47:12.361Z,95.3
2022-11-01T22:52:08.783Z,95.3
2022-11-01T22:57:25.193Z,95.5
2022-11-01T23:02:31.700Z,95.7
2022-11-01T23:07:37.954Z,95.9
2022-11-01T23:12:47.907Z,96.1
2022-11-01T23:17:54.252Z,96.2
2022-11-01T23:23:34.738Z,96.2
2022-11-01T23:28:42.127Z,96.3
2022-11-01T23:33:49.112Z,96.2
2022-11-01T23:39:15.554Z,96.3
2022-11-01T23:44:01.875Z,96.5
2022-11-01T23:49:08.282Z,96.6
2022-11-01T23:54:14.647Z,96.6
2022-11-01T23:59:21.177Z,97.0
